sensor_id;sensor_type;location;lat;lon;timestamp;P1;durP1;ratioP1;P2;durP2;ratioP2
20593;SDS011;10455;48.732;10.266;2024-01-30T00:00:16;70.50;;;50.73;;
20593;SDS011;10455;48.732;10.266;2024-01-30T00:05:20;66.90;;;50.30;;
20593;SDS011;10455;48.732;10.266;2024-01-30T00:10:22;71.17;;;54.83;;
20593;SDS011;10455;48.732;10.266;2024-01-30T00:15:23;61.87;;;49.83;;
20593;SDS011;10455;48.732;10.266;2024-01-30T00:20:27;69.50;;;51.43;;
20593;SDS011;10455;48.732;10.266;2024-01-30T00:25:29;69.20;;;50.13;;
20593;SDS011;10455;48.732;10.266;2024-01-30T00:30:30;69.47;;;50.90;;
20593;SDS011;10455;48.732;10.266;2024-01-30T00:35:34;64.30;;;46.00;;
20593;SDS011;10455;48.732;10.266;2024-01-30T00:40:36;61.60;;;45.30;;
20593;SDS011;10455;48.732;10.266;2024-01-30T00:45:39;66.43;;;49.17;;
20593;SDS011;10455;48.732;10.266;2024-01-30T00:50:42;74.70;;;51.60;;
20593;SDS011;10455;48.732;10.266;2024-01-30T00:55:44;74.30;;;53.70;;
20593;SDS011;10455;48.732;10.266;2024-01-30T01:00:46;84.03;;;56.53;;
20593;SDS011;10455;48.732;10.266;2024-01-30T01:05:49;69.17;;;50.23;;
20593;SDS011;10455;48.732;10.266;2024-01-30T01:10:51;72.17;;;50.47;;
20593;SDS011;10455;48.732;10.266;2024-01-30T01:15:53;69.10;;;48.77;;
20593;SDS011;10455;48.732;10.266;2024-01-30T01:20:57;70.37;;;49.10;;
20593;SDS011;10455;48.732;10.266;2024-01-30T01:25:58;62.23;;;45.57;;
20593;SDS011;10455;48.732;10.266;2024-01-30T01:31:01;56.67;;;43.77;;
20593;SDS011;10455;48.732;10.266;2024-01-30T01:36:06;72.20;;;47.63;;
20593;SDS011;10455;48.732;10.266;2024-01-30T01:41:08;64.17;;;46.47;;
20593;SDS011;10455;48.732;10.266;2024-01-30T01:46:10;60.27;;;43.70;;
20593;SDS011;10455;48.732;10.266;2024-01-30T01:51:14;61.60;;;45.43;;
20593;SDS011;10455;48.732;10.266;2024-01-30T01:56:16;70.63;;;48.03;;
20593;SDS011;10455;48.732;10.266;2024-01-30T02:01:18;67.07;;;48.30;;
20593;SDS011;10455;48.732;10.266;2024-01-30T02:06:23;65.60;;;48.07;;
20593;SDS011;10455;48.732;10.266;2024-01-30T02:11:25;69.67;;;46.77;;
20593;SDS011;10455;48.732;10.266;2024-01-30T02:16:27;60.67;;;45.57;;
20593;SDS011;10455;48.732;10.266;2024-01-30T02:21:31;59.63;;;45.20;;
20593;SDS011;10455;48.732;10.266;2024-01-30T02:26:33;62.87;;;45.67;;
20593;SDS011;10455;48.732;10.266;2024-01-30T02:31:35;64.90;;;43.47;;
20593;SDS011;10455;48.732;10.266;2024-01-30T02:36:38;69.83;;;46.60;;
20593;SDS011;10455;48.732;10.266;2024-01-30T02:41:43;66.07;;;46.40;;
20593;SDS011;10455;48.732;10.266;2024-01-30T02:46:45;65.60;;;46.53;;
20593;SDS011;10455;48.732;10.266;2024-01-30T02:51:48;61.57;;;43.23;;
20593;SDS011;10455;48.732;10.266;2024-01-30T02:56:50;62.60;;;45.70;;
20593;SDS011;10455;48.732;10.266;2024-01-30T03:01:52;61.93;;;45.73;;
20593;SDS011;10455;48.732;10.266;2024-01-30T03:06:55;67.17;;;45.63;;
20593;SDS011;10455;48.732;10.266;2024-01-30T03:11:57;61.93;;;44.47;;
20593;SDS011;10455;48.732;10.266;2024-01-30T03:16:59;56.27;;;41.43;;
20593;SDS011;10455;48.732;10.266;2024-01-30T03:22:02;58.97;;;43.57;;
20593;SDS011;10455;48.732;10.266;2024-01-30T03:27:04;52.30;;;40.37;;
20593;SDS011;10455;48.732;10.266;2024-01-30T03:32:06;70.10;;;47.97;;
20593;SDS011;10455;48.732;10.266;2024-01-30T03:37:09;74.50;;;49.37;;
20593;SDS011;10455;48.732;10.266;2024-01-30T03:42:11;66.63;;;46.20;;
20593;SDS011;10455;48.732;10.266;2024-01-30T03:47:13;71.33;;;48.23;;
20593;SDS011;10455;48.732;10.266;2024-01-30T03:52:17;60.03;;;40.37;;
20593;SDS011;10455;48.732;10.266;2024-01-30T03:57:18;54.50;;;40.30;;
20593;SDS011;10455;48.732;10.266;2024-01-30T04:02:21;59.60;;;44.27;;
20593;SDS011;10455;48.732;10.266;2024-01-30T04:07:24;55.23;;;41.07;;
20593;SDS011;10455;48.732;10.266;2024-01-30T04:12:26;65.73;;;43.33;;
20593;SDS011;10455;48.732;10.266;2024-01-30T04:17:28;68.83;;;47.37;;
20593;SDS011;10455;48.732;10.266;2024-01-30T04:22:31;65.97;;;47.13;;
20593;SDS011;10455;48.732;10.266;2024-01-30T04:27:33;68.33;;;47.63;;
20593;SDS011;10455;48.732;10.266;2024-01-30T04:32:35;72.33;;;46.07;;
20593;SDS011;10455;48.732;10.266;2024-01-30T04:37:39;61.67;;;43.60;;
20593;SDS011;10455;48.732;10.266;2024-01-30T04:42:41;63.60;;;44.90;;
20593;SDS011;10455;48.732;10.266;2024-01-30T04:47:43;71.67;;;47.33;;
20593;SDS011;10455;48.732;10.266;2024-01-30T04:52:46;57.93;;;42.83;;
20593;SDS011;10455;48.732;10.266;2024-01-30T04:57:48;57.93;;;42.37;;
20593;SDS011;10455;48.732;10.266;2024-01-30T05:02:50;56.77;;;38.40;;
20593;SDS011;10455;48.732;10.266;2024-01-30T05:07:53;56.20;;;40.57;;
20593;SDS011;10455;48.732;10.266;2024-01-30T05:12:55;60.83;;;45.33;;
20593;SDS011;10455;48.732;10.266;2024-01-30T05:17:57;69.20;;;47.53;;
20593;SDS011;10455;48.732;10.266;2024-01-30T05:23:00;58.90;;;45.13;;
20593;SDS011;10455;48.732;10.266;2024-01-30T05:28:02;70.17;;;48.20;;
20593;SDS011;10455;48.732;10.266;2024-01-30T05:33:04;68.37;;;45.37;;
20593;SDS011;10455;48.732;10.266;2024-01-30T05:38:08;57.03;;;42.50;;
20593;SDS011;10455;48.732;10.266;2024-01-30T05:43:09;66.37;;;47.33;;
20593;SDS011;10455;48.732;10.266;2024-01-30T05:48:11;62.17;;;46.07;;
20593;SDS011;10455;48.732;10.266;2024-01-30T05:53:15;60.80;;;41.43;;
20593;SDS011;10455;48.732;10.266;2024-01-30T05:58:16;58.60;;;38.77;;
20593;SDS011;10455;48.732;10.266;2024-01-30T06:03:18;64.70;;;44.43;;
20593;SDS011;10455;48.732;10.266;2024-01-30T06:08:22;58.50;;;42.50;;
20593;SDS011;10455;48.732;10.266;2024-01-30T06:13:23;59.27;;;45.20;;
20593;SDS011;10455;48.732;10.266;2024-01-30T06:18:25;67.90;;;48.70;;
20593;SDS011;10455;48.732;10.266;2024-01-30T06:23:30;63.97;;;44.67;;
20593;SDS011;10455;48.732;10.266;2024-01-30T06:28:32;69.17;;;46.87;;
20593;SDS011;10455;48.732;10.266;2024-01-30T06:33:34;58.43;;;42.40;;
20593;SDS011;10455;48.732;10.266;2024-01-30T06:38:37;65.87;;;48.13;;
20593;SDS011;10455;48.732;10.266;2024-01-30T06:43:39;69.80;;;47.50;;
20593;SDS011;10455;48.732;10.266;2024-01-30T06:48:41;72.50;;;50.33;;
20593;SDS011;10455;48.732;10.266;2024-01-30T06:53:46;69.50;;;48.33;;
20593;SDS011;10455;48.732;10.266;2024-01-30T06:58:48;70.87;;;50.07;;
20593;SDS011;10455;48.732;10.266;2024-01-30T07:03:50;83.27;;;54.63;;
20593;SDS011;10455;48.732;10.266;2024-01-30T07:08:53;88.20;;;57.23;;
20593;SDS011;10455;48.732;10.266;2024-01-30T07:13:55;82.57;;;54.47;;
20593;SDS011;10455;48.732;10.266;2024-01-30T07:18:57;74.90;;;51.33;;
20593;SDS011;10455;48.732;10.266;2024-01-30T07:24:00;76.07;;;53.13;;
20593;SDS011;10455;48.732;10.266;2024-01-30T07:29:02;72.30;;;53.07;;
20593;SDS011;10455;48.732;10.266;2024-01-30T07:34:04;101.77;;;69.23;;
20593;SDS011;10455;48.732;10.266;2024-01-30T07:39:07;119.57;;;73.20;;
20593;SDS011;10455;48.732;10.266;2024-01-30T07:44:10;109.93;;;71.73;;
20593;SDS011;10455;48.732;10.266;2024-01-30T07:49:12;113.33;;;68.10;;
20593;SDS011;10455;48.732;10.266;2024-01-30T07:54:15;79.70;;;53.70;;
20593;SDS011;10455;48.732;10.266;2024-01-30T07:59:17;72.57;;;51.23;;
20593;SDS011;10455;48.732;10.266;2024-01-30T08:04:21;68.70;;;48.13;;
20593;SDS011;10455;48.732;10.266;2024-01-30T08:09:24;70.20;;;51.50;;
20593;SDS011;10455;48.732;10.266;2024-01-30T08:14:26;64.77;;;49.93;;
20593;SDS011;10455;48.732;10.266;2024-01-30T08:19:28;71.20;;;50.33;;
20593;SDS011;10455;48.732;10.266;2024-01-30T08:24:32;68.50;;;53.33;;
20593;SDS011;10455;48.732;10.266;2024-01-30T08:29:33;85.67;;;63.70;;
20593;SDS011;10455;48.732;10.266;2024-01-30T08:34:35;100.90;;;78.83;;
20593;SDS011;10455;48.732;10.266;2024-01-30T08:39:38;91.77;;;68.73;;
20593;SDS011;10455;48.732;10.266;2024-01-30T08:44:40;79.60;;;57.73;;
20593;SDS011;10455;48.732;10.266;2024-01-30T08:49:42;64.50;;;52.07;;
20593;SDS011;10455;48.732;10.266;2024-01-30T08:54:46;68.77;;;54.63;;
20593;SDS011;10455;48.732;10.266;2024-01-30T08:59:48;63.80;;;52.13;;
20593;SDS011;10455;48.732;10.266;2024-01-30T09:04:50;74.27;;;57.43;;
20593;SDS011;10455;48.732;10.266;2024-01-30T09:09:53;53.77;;;46.27;;
20593;SDS011;10455;48.732;10.266;2024-01-30T09:14:55;55.73;;;45.97;;
20593;SDS011;10455;48.732;10.266;2024-01-30T09:19:57;52.40;;;45.70;;
20593;SDS011;10455;48.732;10.266;2024-01-30T09:25:01;51.27;;;43.00;;
20593;SDS011;10455;48.732;10.266;2024-01-30T09:30:04;52.63;;;45.53;;
20593;SDS011;10455;48.732;10.266;2024-01-30T09:35:07;38.97;;;34.17;;
20593;SDS011;10455;48.732;10.266;2024-01-30T09:40:11;35.60;;;31.90;;
20593;SDS011;10455;48.732;10.266;2024-01-30T09:45:13;36.00;;;32.07;;
20593;SDS011;10455;48.732;10.266;2024-01-30T09:50:16;36.27;;;32.40;;
20593;SDS011;10455;48.732;10.266;2024-01-30T09:55:20;35.70;;;31.83;;
20593;SDS011;10455;48.732;10.266;2024-01-30T10:00:22;36.07;;;32.17;;
20593;SDS011;10455;48.732;10.266;2024-01-30T10:05:27;35.77;;;31.93;;
20593;SDS011;10455;48.732;10.266;2024-01-30T10:10:32;30.95;;;27.67;;
20593;SDS011;10455;48.732;10.266;2024-01-30T10:15:34;29.60;;;26.52;;
20593;SDS011;10455;48.732;10.266;2024-01-30T10:20:38;30.50;;;27.25;;
20593;SDS011;10455;48.732;10.266;2024-01-30T10:25:42;32.90;;;29.55;;
20593;SDS011;10455;48.732;10.266;2024-01-30T10:30:44;26.02;;;23.40;;
20593;SDS011;10455;48.732;10.266;2024-01-30T10:35:46;28.42;;;25.33;;
20593;SDS011;10455;48.732;10.266;2024-01-30T10:40:51;27.95;;;25.00;;
20593;SDS011;10455;48.732;10.266;2024-01-30T10:45:57;27.60;;;24.77;;
20593;SDS011;10455;48.732;10.266;2024-01-30T10:51:03;27.80;;;25.05;;
20593;SDS011;10455;48.732;10.266;2024-01-30T10:56:07;28.58;;;25.67;;
20593;SDS011;10455;48.732;10.266;2024-01-30T11:01:11;25.77;;;23.08;;
20593;SDS011;10455;48.732;10.266;2024-01-30T11:06:14;25.20;;;22.65;;
20593;SDS011;10455;48.732;10.266;2024-01-30T11:11:19;34.80;;;31.35;;
20593;SDS011;10455;48.732;10.266;2024-01-30T11:16:22;24.85;;;22.45;;
20593;SDS011;10455;48.732;10.266;2024-01-30T11:21:25;23.20;;;20.92;;
20593;SDS011;10455;48.732;10.266;2024-01-30T11:26:29;16.42;;;14.82;;
20593;SDS011;10455;48.732;10.266;2024-01-30T11:31:32;19.13;;;17.23;;
20593;SDS011;10455;48.732;10.266;2024-01-30T11:36:34;15.93;;;14.43;;
20593;SDS011;10455;48.732;10.266;2024-01-30T11:41:39;8.50;;;7.75;;
20593;SDS011;10455;48.732;10.266;2024-01-30T11:46:42;7.97;;;7.18;;
20593;SDS011;10455;48.732;10.266;2024-01-30T11:51:45;9.25;;;8.38;;
20593;SDS011;10455;48.732;10.266;2024-01-30T11:56:50;9.68;;;8.77;;
20593;SDS011;10455;48.732;10.266;2024-01-30T12:01:51;9.57;;;8.77;;
20593;SDS011;10455;48.732;10.266;2024-01-30T12:06:55;10.85;;;9.50;;
20593;SDS011;10455;48.732;10.266;2024-01-30T12:11:59;10.68;;;9.68;;
20593;SDS011;10455;48.732;10.266;2024-01-30T12:17:01;11.02;;;9.93;;
20593;SDS011;10455;48.732;10.266;2024-01-30T12:22:10;13.23;;;12.02;;
20593;SDS011;10455;48.732;10.266;2024-01-30T12:27:16;12.35;;;10.43;;
20593;SDS011;10455;48.732;10.266;2024-01-30T12:32:18;12.60;;;11.25;;
20593;SDS011;10455;48.732;10.266;2024-01-30T12:37:20;14.18;;;12.73;;
20593;SDS011;10455;48.732;10.266;2024-01-30T12:42:26;12.90;;;11.68;;
20593;SDS011;10455;48.732;10.266;2024-01-30T12:47:28;13.50;;;12.27;;
20593;SDS011;10455;48.732;10.266;2024-01-30T12:52:30;13.23;;;11.90;;
20593;SDS011;10455;48.732;10.266;2024-01-30T12:57:34;14.85;;;11.20;;
20593;SDS011;10455;48.732;10.266;2024-01-30T13:02:36;12.75;;;11.55;;
20593;SDS011;10455;48.732;10.266;2024-01-30T13:07:38;11.57;;;9.90;;
20593;SDS011;10455;48.732;10.266;2024-01-30T13:12:41;13.82;;;11.40;;
20593;SDS011;10455;48.732;10.266;2024-01-30T13:17:43;11.50;;;10.40;;
20593;SDS011;10455;48.732;10.266;2024-01-30T13:22:47;10.82;;;9.63;;
20593;SDS011;10455;48.732;10.266;2024-01-30T13:27:51;14.32;;;12.95;;
20593;SDS011;10455;48.732;10.266;2024-01-30T13:32:53;19.15;;;17.35;;
20593;SDS011;10455;48.732;10.266;2024-01-30T13:37:55;18.00;;;16.20;;
20593;SDS011;10455;48.732;10.266;2024-01-30T13:42:58;20.42;;;18.45;;
20593;SDS011;10455;48.732;10.266;2024-01-30T13:48:00;21.73;;;19.60;;
20593;SDS011;10455;48.732;10.266;2024-01-30T13:53:03;23.00;;;20.77;;
20593;SDS011;10455;48.732;10.266;2024-01-30T13:58:06;20.65;;;18.55;;
20593;SDS011;10455;48.732;10.266;2024-01-30T14:03:08;19.08;;;15.65;;
20593;SDS011;10455;48.732;10.266;2024-01-30T14:08:10;15.77;;;14.18;;
20593;SDS011;10455;48.732;10.266;2024-01-30T14:13:14;15.27;;;13.77;;
20593;SDS011;10455;48.732;10.266;2024-01-30T14:18:16;18.80;;;16.95;;
20593;SDS011;10455;48.732;10.266;2024-01-30T14:23:18;15.18;;;13.65;;
20593;SDS011;10455;48.732;10.266;2024-01-30T14:28:21;16.63;;;14.82;;
20593;SDS011;10455;48.732;10.266;2024-01-30T14:33:23;16.10;;;14.50;;
20593;SDS011;10455;48.732;10.266;2024-01-30T14:38:26;16.83;;;15.10;;
20593;SDS011;10455;48.732;10.266;2024-01-30T14:43:29;15.52;;;13.88;;
20593;SDS011;10455;48.732;10.266;2024-01-30T14:48:32;18.33;;;16.53;;
20593;SDS011;10455;48.732;10.266;2024-01-30T14:53:34;20.13;;;18.07;;
20593;SDS011;10455;48.732;10.266;2024-01-30T14:58:37;24.60;;;22.10;;
20593;SDS011;10455;48.732;10.266;2024-01-30T15:03:39;21.47;;;19.10;;
20593;SDS011;10455;48.732;10.266;2024-01-30T15:08:42;24.50;;;21.83;;
20593;SDS011;10455;48.732;10.266;2024-01-30T15:13:46;21.93;;;19.73;;
20593;SDS011;10455;48.732;10.266;2024-01-30T15:18:48;19.87;;;17.93;;
20593;SDS011;10455;48.732;10.266;2024-01-30T15:23:50;18.73;;;16.83;;
20593;SDS011;10455;48.732;10.266;2024-01-30T15:28:53;34.20;;;28.53;;
20593;SDS011;10455;48.732;10.266;2024-01-30T15:33:55;65.93;;;48.47;;
20593;SDS011;10455;48.732;10.266;2024-01-30T15:38:57;79.30;;;57.67;;
20593;SDS011;10455;48.732;10.266;2024-01-30T15:44:00;22.40;;;20.00;;
20593;SDS011;10455;48.732;10.266;2024-01-30T15:49:03;26.27;;;23.57;;
20593;SDS011;10455;48.732;10.266;2024-01-30T15:54:05;112.20;;;78.93;;
20593;SDS011;10455;48.732;10.266;2024-01-30T15:59:08;31.23;;;27.83;;
20593;SDS011;10455;48.732;10.266;2024-01-30T16:04:10;29.77;;;24.83;;
20593;SDS011;10455;48.732;10.266;2024-01-30T16:09:12;26.73;;;23.87;;
20593;SDS011;10455;48.732;10.266;2024-01-30T16:14:15;28.70;;;24.70;;
20593;SDS011;10455;48.732;10.266;2024-01-30T16:19:17;29.17;;;24.77;;
20593;SDS011;10455;48.732;10.266;2024-01-30T16:24:21;31.03;;;23.00;;
20593;SDS011;10455;48.732;10.266;2024-01-30T16:29:27;28.10;;;23.23;;
20593;SDS011;10455;48.732;10.266;2024-01-30T16:34:30;36.17;;;28.90;;
20593;SDS011;10455;48.732;10.266;2024-01-30T16:39:32;41.67;;;30.27;;
20593;SDS011;10455;48.732;10.266;2024-01-30T16:44:36;39.03;;;31.47;;
20593;SDS011;10455;48.732;10.266;2024-01-30T16:49:38;39.73;;;31.37;;
20593;SDS011;10455;48.732;10.266;2024-01-30T16:54:39;66.27;;;51.47;;
20593;SDS011;10455;48.732;10.266;2024-01-30T16:59:43;35.13;;;29.73;;
20593;SDS011;10455;48.732;10.266;2024-01-30T17:04:45;36.40;;;31.30;;
20593;SDS011;10455;48.732;10.266;2024-01-30T17:09:47;37.07;;;31.07;;
20593;SDS011;10455;48.732;10.266;2024-01-30T17:14:50;33.67;;;27.60;;
20593;SDS011;10455;48.732;10.266;2024-01-30T17:19:52;37.37;;;30.13;;
20593;SDS011;10455;48.732;10.266;2024-01-30T17:24:54;44.90;;;36.60;;
20593;SDS011;10455;48.732;10.266;2024-01-30T17:29:58;48.60;;;38.83;;
20593;SDS011;10455;48.732;10.266;2024-01-30T17:35:00;34.17;;;29.20;;
20593;SDS011;10455;48.732;10.266;2024-01-30T17:40:02;31.60;;;26.90;;
20593;SDS011;10455;48.732;10.266;2024-01-30T17:45:07;43.13;;;36.07;;
20593;SDS011;10455;48.732;10.266;2024-01-30T17:50:10;36.70;;;31.50;;
20593;SDS011;10455;48.732;10.266;2024-01-30T17:55:12;33.30;;;29.00;;
20593;SDS011;10455;48.732;10.266;2024-01-30T18:00:15;40.17;;;29.43;;
20593;SDS011;10455;48.732;10.266;2024-01-30T18:05:18;35.00;;;28.30;;
20593;SDS011;10455;48.732;10.266;2024-01-30T18:10:20;33.00;;;27.43;;
20593;SDS011;10455;48.732;10.266;2024-01-30T18:15:23;34.53;;;26.80;;
20593;SDS011;10455;48.732;10.266;2024-01-30T18:20:25;30.20;;;25.70;;
20593;SDS011;10455;48.732;10.266;2024-01-30T18:25:26;29.17;;;24.93;;
20593;SDS011;10455;48.732;10.266;2024-01-30T18:30:30;28.30;;;23.93;;
20593;SDS011;10455;48.732;10.266;2024-01-30T18:35:32;30.00;;;25.37;;
20593;SDS011;10455;48.732;10.266;2024-01-30T18:40:34;36.97;;;27.10;;
20593;SDS011;10455;48.732;10.266;2024-01-30T18:45:37;43.87;;;33.00;;
20593;SDS011;10455;48.732;10.266;2024-01-30T18:50:39;34.47;;;25.93;;
20593;SDS011;10455;48.732;10.266;2024-01-30T18:55:41;42.03;;;31.73;;
20593;SDS011;10455;48.732;10.266;2024-01-30T19:00:44;36.27;;;27.10;;
20593;SDS011;10455;48.732;10.266;2024-01-30T19:05:46;34.53;;;27.23;;
20593;SDS011;10455;48.732;10.266;2024-01-30T19:10:48;36.87;;;27.67;;
20593;SDS011;10455;48.732;10.266;2024-01-30T19:15:51;32.00;;;26.77;;
20593;SDS011;10455;48.732;10.266;2024-01-30T19:20:54;35.13;;;27.77;;
20593;SDS011;10455;48.732;10.266;2024-01-30T19:25:56;50.27;;;31.63;;
20593;SDS011;10455;48.732;10.266;2024-01-30T19:31:00;119.97;;;57.30;;
20593;SDS011;10455;48.732;10.266;2024-01-30T19:36:01;36.60;;;27.60;;
20593;SDS011;10455;48.732;10.266;2024-01-30T19:41:04;40.03;;;29.53;;
20593;SDS011;10455;48.732;10.266;2024-01-30T19:46:10;54.63;;;33.80;;
20593;SDS011;10455;48.732;10.266;2024-01-30T19:51:12;37.57;;;27.93;;
20593;SDS011;10455;48.732;10.266;2024-01-30T19:56:14;40.57;;;28.10;;
20593;SDS011;10455;48.732;10.266;2024-01-30T20:01:18;46.13;;;31.10;;
20593;SDS011;10455;48.732;10.266;2024-01-30T20:06:20;40.40;;;27.80;;
20593;SDS011;10455;48.732;10.266;2024-01-30T20:11:22;39.87;;;29.53;;
20593;SDS011;10455;48.732;10.266;2024-01-30T20:16:25;35.73;;;27.77;;
20593;SDS011;10455;48.732;10.266;2024-01-30T20:21:36;38.93;;;28.60;;
20593;SDS011;10455;48.732;10.266;2024-01-30T20:26:38;31.93;;;24.67;;
20593;SDS011;10455;48.732;10.266;2024-01-30T20:31:41;28.97;;;22.87;;
20593;SDS011;10455;48.732;10.266;2024-01-30T20:36:43;31.77;;;25.60;;
20593;SDS011;10455;48.732;10.266;2024-01-30T20:41:48;30.47;;;24.83;;
20593;SDS011;10455;48.732;10.266;2024-01-30T20:46:52;27.10;;;24.03;;
20593;SDS011;10455;48.732;10.266;2024-01-30T20:51:54;32.53;;;24.87;;
20593;SDS011;10455;48.732;10.266;2024-01-30T20:56:56;34.33;;;25.90;;
20593;SDS011;10455;48.732;10.266;2024-01-30T21:01:59;32.87;;;28.00;;
20593;SDS011;10455;48.732;10.266;2024-01-30T21:07:01;34.90;;;28.50;;
20593;SDS011;10455;48.732;10.266;2024-01-30T21:12:03;40.83;;;30.77;;
20593;SDS011;10455;48.732;10.266;2024-01-30T21:17:07;48.10;;;38.03;;
20593;SDS011;10455;48.732;10.266;2024-01-30T21:22:08;54.47;;;43.60;;
20593;SDS011;10455;48.732;10.266;2024-01-30T21:27:10;58.67;;;49.03;;
20593;SDS011;10455;48.732;10.266;2024-01-30T21:32:14;43.13;;;34.63;;
20593;SDS011;10455;48.732;10.266;2024-01-30T21:37:16;44.40;;;36.13;;
20593;SDS011;10455;48.732;10.266;2024-01-30T21:42:18;46.10;;;35.23;;
20593;SDS011;10455;48.732;10.266;2024-01-30T21:47:21;47.80;;;37.50;;
20593;SDS011;10455;48.732;10.266;2024-01-30T21:52:23;39.63;;;35.10;;
20593;SDS011;10455;48.732;10.266;2024-01-30T21:57:25;41.17;;;32.33;;
20593;SDS011;10455;48.732;10.266;2024-01-30T22:02:28;40.50;;;34.37;;
20593;SDS011;10455;48.732;10.266;2024-01-30T22:07:30;37.23;;;31.10;;
20593;SDS011;10455;48.732;10.266;2024-01-30T22:12:32;38.33;;;34.07;;
20593;SDS011;10455;48.732;10.266;2024-01-30T22:17:35;39.13;;;32.57;;
20593;SDS011;10455;48.732;10.266;2024-01-30T22:22:37;36.90;;;31.67;;
20593;SDS011;10455;48.732;10.266;2024-01-30T22:27:39;43.50;;;36.97;;
20593;SDS011;10455;48.732;10.266;2024-01-30T22:32:43;41.17;;;34.77;;
20593;SDS011;10455;48.732;10.266;2024-01-30T22:37:45;50.83;;;40.83;;
20593;SDS011;10455;48.732;10.266;2024-01-30T22:42:47;40.27;;;35.97;;
20593;SDS011;10455;48.732;10.266;2024-01-30T22:47:50;46.53;;;38.97;;
20593;SDS011;10455;48.732;10.266;2024-01-30T22:52:52;50.30;;;39.30;;
20593;SDS011;10455;48.732;10.266;2024-01-30T22:57:54;50.47;;;38.60;;
20593;SDS011;10455;48.732;10.266;2024-01-30T23:02:57;50.53;;;37.47;;
20593;SDS011;10455;48.732;10.266;2024-01-30T23:07:59;51.40;;;42.03;;
20593;SDS011;10455;48.732;10.266;2024-01-30T23:13:01;52.77;;;41.30;;
20593;SDS011;10455;48.732;10.266;2024-01-30T23:18:04;55.33;;;47.70;;
20593;SDS011;10455;48.732;10.266;2024-01-30T23:23:06;67.90;;;59.77;;
20593;SDS011;10455;48.732;10.266;2024-01-30T23:28:09;49.73;;;43.30;;
20593;SDS011;10455;48.732;10.266;2024-01-30T23:33:13;43.67;;;36.47;;
20593;SDS011;10455;48.732;10.266;2024-01-30T23:38:14;45.00;;;36.43;;
20593;SDS011;10455;48.732;10.266;2024-01-30T23:43:16;39.37;;;30.67;;
20593;SDS011;10455;48.732;10.266;2024-01-30T23:48:20;38.13;;;30.00;;
20593;SDS011;10455;48.732;10.266;2024-01-30T23:53:22;37.23;;;28.80;;
20593;SDS011;10455;48.732;10.266;2024-01-30T23:58:24;34.37;;;27.77;;
